createdAt,value
2019-05-09T00:00:30.782Z,11.9
2019-05-09T00:01:06.745Z,11.8
2019-05-09T00:01:44.180Z,11.8
2019-05-09T00:02:18.697Z,11.8
2019-05-09T00:02:54.776Z,11.8
2019-05-09T00:03:30.754Z,11.7
2019-05-09T00:04:06.712Z,11.8
2019-05-09T00:04:44.374Z,11.7
2019-05-09T00:05:18.769Z,11.7
2019-05-09T00:05:54.748Z,11.8
2019-05-09T00:06:30.716Z,11.8
2019-05-09T00:07:06.697Z,11.8
2019-05-09T00:07:44.292Z,11.7
2019-05-09T00:08:18.741Z,11.7
2019-05-09T00:08:54.724Z,11.7
2019-05-09T00:09:30.687Z,11.7
2019-05-09T00:10:06.766Z,11.6
2019-05-09T00:10:45.403Z,11.6
2019-05-09T00:11:18.740Z,11.6
2019-05-09T00:11:54.693Z,11.7
2019-05-09T00:12:30.786Z,11.6
2019-05-09T00:13:06.733Z,11.6
2019-05-09T00:13:43.836Z,11.6
2019-05-09T00:14:18.686Z,11.6
2019-05-09T00:14:54.765Z,11.6
2019-05-09T00:15:33.005Z,11.6
2019-05-09T00:16:06.708Z,11.5
2019-05-09T00:16:44.233Z,11.5
2019-05-09T00:17:18.769Z,11.5
2019-05-09T00:17:54.785Z,11.6
2019-05-09T00:18:30.705Z,11.5
2019-05-09T00:19:06.678Z,11.6
2019-05-09T00:19:44.230Z,11.4
2019-05-09T00:20:18.725Z,11.4
2019-05-09T00:20:54.694Z,11.4
2019-05-09T00:21:32.665Z,11.4
2019-05-09T00:22:07.014Z,11.4
2019-05-09T00:22:43.875Z,11.4
2019-05-09T00:23:18.772Z,11.4
2019-05-09T00:23:54.684Z,11.3
2019-05-09T00:24:32.614Z,11.4
2019-05-09T00:25:06.763Z,11.4
2019-05-09T00:25:43.652Z,11.4
2019-05-09T00:26:18.800Z,11.3
2019-05-09T00:26:54.748Z,11.3
2019-05-09T00:27:30.727Z,11.4
2019-05-09T00:28:06.707Z,11.5
2019-05-09T00:28:44.404Z,11.3
2019-05-09T00:29:18.821Z,11.2
2019-05-09T00:29:54.716Z,11.4
2019-05-09T00:30:30.690Z,11.3
2019-05-09T00:31:06.780Z,11.3
2019-05-09T00:31:44.128Z,11.3
2019-05-09T00:32:18.710Z,11.3
2019-05-09T00:32:54.683Z,11.3
2019-05-09T00:33:30.789Z,11.3
2019-05-09T00:34:06.973Z,11.3
2019-05-09T00:34:44.508Z,11.3
2019-05-09T00:35:18.699Z,11.3
2019-05-09T00:35:54.769Z,11.3
2019-05-09T00:36:30.738Z,11.3
2019-05-09T00:37:06.944Z,11.3
2019-05-09T00:37:54.720Z,11.2
2019-05-09T00:38:32.803Z,11.3
2019-05-09T00:39:06.836Z,11.3
2019-05-09T00:39:43.776Z,11.3
2019-05-09T00:40:18.712Z,11.4
2019-05-09T00:40:59.269Z,11.4
2019-05-09T00:41:32.481Z,11.4
2019-05-09T00:42:06.787Z,11.4
2019-05-09T00:42:44.423Z,11.5
2019-05-09T00:43:18.669Z,11.5
2019-05-09T00:43:54.753Z,11.5
2019-05-09T00:44:30.782Z,11.5
2019-05-09T00:45:06.830Z,11.5
2019-05-09T00:45:44.203Z,11.5
2019-05-09T00:46:18.766Z,11.4
2019-05-09T00:46:54.729Z,11.5
2019-05-09T00:47:32.832Z,11.7
2019-05-09T00:48:06.693Z,11.6
2019-05-09T00:48:44.216Z,11.5
2019-05-09T00:49:18.727Z,11.7
2019-05-09T00:49:54.763Z,11.6
2019-05-09T00:50:30.678Z,11.7
2019-05-09T00:51:07.010Z,11.7
2019-05-09T00:51:54.757Z,11.7
2019-05-09T00:52:30.737Z,11.7
2019-05-09T00:53:06.942Z,11.7
2019-05-09T00:53:44.756Z,11.7
2019-05-09T00:54:18.755Z,11.7
2019-05-09T00:54:54.765Z,11.7
2019-05-09T00:55:30.692Z,11.7
2019-05-09T00:56:06.892Z,11.8
2019-05-09T00:56:43.966Z,11.7
2019-05-09T00:57:18.728Z,11.7
2019-05-09T00:57:54.679Z,11.8
2019-05-09T00:58:30.656Z,11.7
2019-05-09T00:59:06.788Z,11.7
2019-05-09T00:59:44.892Z,11.7
2019-05-09T01:00:18.721Z,11.7
2019-05-09T01:00:54.654Z,11.6
2019-05-09T01:01:44.062Z,11.7
2019-05-09T01:02:18.741Z,11.6
2019-05-09T01:02:54.730Z,11.6
2019-05-09T01:03:30.678Z,11.6
2019-05-09T01:04:06.900Z,11.6
2019-05-09T01:04:44.127Z,11.6
2019-05-09T01:05:18.740Z,11.7
2019-05-09T01:05:54.712Z,11.6
2019-05-09T01:06:30.762Z,11.6
2019-05-09T01:07:06.971Z,11.6
2019-05-09T01:07:54.733Z,11.6
2019-05-09T01:08:30.703Z,11.6
2019-05-09T01:09:18.726Z,11.6
2019-05-09T01:09:54.695Z,11.6
2019-05-09T01:10:30.805Z,11.5
2019-05-09T01:11:15.201Z,11.6
2019-05-09T01:11:44.337Z,11.6
2019-05-09T01:12:18.663Z,11.6
2019-05-09T01:12:54.755Z,11.6
2019-05-09T01:13:30.727Z,11.6
2019-05-09T01:14:06.927Z,11.7
2019-05-09T01:14:43.592Z,11.6
2019-05-09T01:15:18.764Z,11.7
2019-05-09T01:15:54.807Z,11.7
2019-05-09T01:16:30.692Z,11.7
2019-05-09T01:17:06.903Z,11.7
2019-05-09T01:17:44.461Z,11.8
2019-05-09T01:18:18.716Z,11.7
2019-05-09T01:18:54.977Z,11.7
2019-05-09T01:19:30.654Z,11.7
2019-05-09T01:20:06.808Z,11.7
2019-05-09T01:20:44.389Z,11.8
2019-05-09T01:21:18.726Z,11.6
2019-05-09T01:21:54.660Z,11.6
2019-05-09T01:22:32.897Z,11.8
2019-05-09T01:23:06.828Z,11.6
2019-05-09T01:23:43.989Z,11.7
2019-05-09T01:24:44.597Z,11.6
2019-05-09T01:25:18.681Z,11.6
2019-05-09T01:25:54.652Z,11.6
2019-05-09T01:26:33.091Z,11.7
2019-05-09T01:27:06.715Z,11.6
2019-05-09T01:27:43.489Z,11.6
2019-05-09T01:28:18.655Z,11.6
2019-05-09T01:28:54.746Z,11.6
2019-05-09T01:29:30.699Z,11.6
2019-05-09T01:30:06.910Z,11.6
2019-05-09T01:30:44.161Z,11.6
2019-05-09T01:31:18.727Z,11.6
2019-05-09T01:32:06.814Z,11.6
2019-05-09T01:32:43.687Z,11.6
2019-05-09T01:33:18.668Z,11.5
2019-05-09T01:33:54.635Z,11.6
2019-05-09T01:34:32.879Z,11.6
2019-05-09T01:35:18.725Z,11.6
2019-05-09T01:35:54.700Z,11.6
2019-05-09T01:36:30.678Z,11.6
2019-05-09T01:37:06.906Z,11.6
2019-05-09T01:37:43.732Z,11.6
2019-05-09T01:38:18.700Z,11.6
2019-05-09T01:38:54.670Z,11.6
2019-05-09T01:39:30.646Z,11.6
2019-05-09T01:40:06.764Z,11.6
2019-05-09T01:40:44.233Z,11.7
2019-05-09T01:41:31.722Z,11.6
2019-05-09T01:41:54.628Z,11.7
2019-05-09T01:42:30.778Z,11.6
2019-05-09T01:43:06.931Z,11.7
2019-05-09T01:43:44.588Z,11.7
2019-05-09T01:44:18.633Z,11.6
2019-05-09T01:44:54.718Z,11.7
2019-05-09T01:45:30.734Z,11.7
2019-05-09T01:46:06.904Z,11.7
2019-05-09T01:46:54.658Z,11.6
2019-05-09T01:47:30.828Z,11.6
2019-05-09T01:48:06.960Z,11.7
2019-05-09T01:48:43.468Z,11.6
2019-05-09T01:49:18.644Z,11.6
2019-05-09T01:49:54.735Z,11.6
2019-05-09T01:50:30.709Z,11.6
2019-05-09T01:51:06.793Z,11.5
2019-05-09T01:51:44.781Z,11.6
2019-05-09T01:52:18.747Z,11.6
2019-05-09T01:52:54.752Z,11.6
2019-05-09T01:53:30.681Z,11.5
2019-05-09T01:54:06.893Z,11.5
2019-05-09T01:54:43.915Z,11.6
2019-05-09T01:55:18.704Z,11.6
2019-05-09T01:55:54.683Z,11.5
2019-05-09T01:56:30.636Z,11.5
2019-05-09T01:57:06.832Z,11.6
2019-05-09T01:57:48.114Z,11.5
2019-05-09T01:58:18.748Z,11.5
2019-05-09T01:58:54.642Z,11.5
2019-05-09T01:59:30.723Z,11.5
2019-05-09T02:00:30.706Z,11.5
2019-05-09T02:01:06.776Z,11.5
2019-05-09T02:01:54.734Z,11.4
2019-05-09T02:02:30.730Z,11.5
2019-05-09T02:03:06.906Z,11.5
2019-05-09T02:03:44.628Z,11.5
2019-05-09T02:04:18.731Z,11.5
2019-05-09T02:04:54.702Z,11.4
2019-05-09T02:05:30.658Z,11.4
2019-05-09T02:06:18.669Z,11.3
2019-05-09T02:06:54.628Z,11.3
2019-05-09T02:07:30.716Z,11.4
2019-05-09T02:08:06.691Z,11.4
2019-05-09T02:08:44.231Z,11.3
2019-05-09T02:09:18.620Z,11.4
2019-05-09T02:09:54.717Z,11.4
2019-05-09T02:10:30.692Z,11.4
2019-05-09T02:11:06.662Z,11.3
2019-05-09T02:11:45.784Z,11.3
2019-05-09T02:12:18.706Z,11.3
2019-05-09T02:12:54.689Z,11.3
2019-05-09T02:13:30.654Z,11.4
2019-05-09T02:14:30.734Z,11.3
2019-05-09T02:15:18.682Z,11.3
2019-05-09T02:15:54.696Z,11.2
2019-05-09T02:16:30.617Z,11.2
2019-05-09T02:17:18.625Z,11.3
2019-05-09T02:18:04.868Z,11.2
2019-05-09T02:18:30.689Z,11.2
2019-05-09T02:19:06.886Z,11.2
2019-05-09T02:19:44.281Z,11.2
2019-05-09T02:20:18.701Z,11.1
2019-05-09T02:20:54.685Z,11.1
2019-05-09T02:21:30.652Z,11.2
2019-05-09T02:22:06.855Z,11
2019-05-09T02:22:43.853Z,11.2
2019-05-09T02:23:18.675Z,11
2019-05-09T02:23:54.647Z,11.1
2019-05-09T02:24:30.611Z,11
2019-05-09T02:25:06.837Z,11.1
2019-05-09T02:25:44.158Z,11.1
2019-05-09T02:26:18.674Z,11.1
2019-05-09T02:26:54.723Z,11.1
2019-05-09T02:27:30.706Z,11
2019-05-09T02:28:06.790Z,11.2
2019-05-09T02:28:43.647Z,11.1
2019-05-09T02:29:18.746Z,11.1
2019-05-09T02:29:54.761Z,11
2019-05-09T02:30:30.711Z,11
2019-05-09T02:31:06.697Z,11
2019-05-09T02:31:45.050Z,11
2019-05-09T02:32:18.698Z,11.1
2019-05-09T02:32:55.111Z,10.9
2019-05-09T02:33:30.637Z,11
2019-05-09T02:34:06.964Z,11
2019-05-09T02:34:44.621Z,10.9
2019-05-09T02:35:18.659Z,11
2019-05-09T02:36:02.266Z,11
2019-05-09T02:36:30.722Z,10.9
2019-05-09T02:37:09.590Z,11
2019-05-09T02:37:42.655Z,11
2019-05-09T02:38:20.337Z,11
2019-05-09T02:38:54.725Z,10.9
2019-05-09T02:39:30.689Z,11
2019-05-09T02:40:10.572Z,11
2019-05-09T02:40:42.633Z,11
2019-05-09T02:41:20.244Z,10.9
2019-05-09T02:42:12.799Z,10.9
2019-05-09T02:42:30.655Z,10.9
2019-05-09T02:43:10.334Z,10.9
2019-05-09T02:43:42.700Z,10.9
2019-05-09T02:44:20.025Z,10.9
2019-05-09T02:44:54.647Z,10.9
2019-05-09T02:45:30.613Z,10.9
2019-05-09T02:46:10.104Z,11
2019-05-09T02:46:42.736Z,11
2019-05-09T02:47:18.652Z,10.9
2019-05-09T02:47:54.639Z,11
2019-05-09T02:48:30.701Z,10.9
2019-05-09T02:49:09.222Z,10.9
2019-05-09T02:49:42.678Z,10.9
2019-05-09T02:50:19.934Z,10.9
2019-05-09T02:51:09.543Z,11
2019-05-09T02:51:42.752Z,10.9
2019-05-09T02:52:20.178Z,11
2019-05-09T02:52:54.657Z,10.9
2019-05-09T02:53:30.609Z,11
2019-05-09T02:54:10.364Z,10.9
2019-05-09T02:54:42.667Z,10.9
2019-05-09T02:55:19.023Z,10.9
2019-05-09T02:55:54.625Z,10.9
2019-05-09T02:56:54.685Z,10.9
2019-05-09T02:57:30.602Z,10.9
2019-05-09T02:58:08.591Z,10.9
2019-05-09T02:58:54.706Z,10.9
2019-05-09T02:59:42.702Z,11
2019-05-09T03:00:20.540Z,11
2019-05-09T03:00:54.635Z,11
2019-05-09T03:01:30.640Z,11
2019-05-09T03:02:09.969Z,11.1
2019-05-09T03:02:42.655Z,11.1
2019-05-09T03:03:20.217Z,11
2019-05-09T03:03:54.596Z,10.9
2019-05-09T03:04:30.699Z,11
2019-05-09T03:05:09.214Z,11
2019-05-09T03:05:42.622Z,11.1
2019-05-09T03:06:20.028Z,11
2019-05-09T03:06:54.677Z,11
2019-05-09T03:07:30.699Z,11
2019-05-09T03:08:09.770Z,11
2019-05-09T03:08:42.742Z,11
2019-05-09T03:09:19.480Z,11.1
2019-05-09T03:09:54.649Z,11.1
2019-05-09T03:10:30.619Z,11
2019-05-09T03:11:10.302Z,11
2019-05-09T03:11:42.679Z,11.1
2019-05-09T03:12:35.518Z,11.1
2019-05-09T03:12:54.612Z,11
2019-05-09T03:13:30.693Z,11
2019-05-09T03:14:09.555Z,11
2019-05-09T03:14:42.680Z,11
2019-05-09T03:15:19.073Z,11.1
2019-05-09T03:15:54.713Z,11.1
2019-05-09T03:16:30.708Z,11.1
2019-05-09T03:17:09.312Z,11.1
2019-05-09T03:17:42.653Z,11
2019-05-09T03:18:18.895Z,11.1
2019-05-09T03:18:54.680Z,11.1
2019-05-09T03:19:30.903Z,11.1
2019-05-09T03:20:09.809Z,11.2
2019-05-09T03:21:09.474Z,11.1
2019-05-09T03:21:42.602Z,11
2019-05-09T03:22:19.218Z,11.1
2019-05-09T03:22:54.712Z,11.2
2019-05-09T03:23:30.643Z,11.2
2019-05-09T03:24:10.367Z,11.2
2019-05-09T03:24:42.722Z,11.2
2019-05-09T03:25:19.598Z,11.2
2019-05-09T03:25:54.631Z,11.2
2019-05-09T03:26:30.605Z,11.2
2019-05-09T03:27:08.985Z,11.2
2019-05-09T03:27:42.661Z,11.1
2019-05-09T03:28:18.903Z,11.2
2019-05-09T03:28:54.601Z,11.2
2019-05-09T03:29:30.690Z,11.2
2019-05-09T03:30:21.269Z,11.1
2019-05-09T03:30:54.671Z,11.2
2019-05-09T03:31:30.686Z,11.3
2019-05-09T03:32:09.727Z,11.2
2019-05-09T03:32:54.610Z,11.3
2019-05-09T03:33:39.350Z,11.3
2019-05-09T03:34:09.886Z,11.3
2019-05-09T03:34:42.613Z,11.2
2019-05-09T03:35:18.598Z,11.2
2019-05-09T03:35:54.677Z,11.2
2019-05-09T03:36:30.648Z,11.3
2019-05-09T03:37:08.793Z,11.2
2019-05-09T03:37:42.588Z,11.2
2019-05-09T03:38:18.667Z,11.2
2019-05-09T03:38:54.678Z,11.2
2019-05-09T03:39:30.607Z,11.2
2019-05-09T03:40:08.219Z,11.2
2019-05-09T03:40:42.676Z,11.2
2019-05-09T03:41:18.647Z,11.2
2019-05-09T03:41:54.612Z,11.2
2019-05-09T03:42:43.894Z,11.2
2019-05-09T03:43:08.339Z,11.1
2019-05-09T03:43:42.645Z,11.1
2019-05-09T03:44:18.671Z,11.1
2019-05-09T03:44:54.697Z,11.2
2019-05-09T03:45:30.666Z,11.1
2019-05-09T03:46:08.158Z,11.2
2019-05-09T03:46:42.667Z,11
2019-05-09T03:48:18.615Z,11.1
2019-05-09T03:48:54.701Z,11.1
2019-05-09T03:49:30.703Z,11.1
2019-05-09T03:50:42.613Z,11.2
2019-05-09T03:52:18.602Z,11.1
2019-05-09T03:52:54.686Z,11.2
2019-05-09T03:53:42.682Z,11.1
2019-05-09T03:54:54.666Z,11.1
2019-05-09T03:55:30.583Z,11.1
2019-05-09T03:57:54.583Z,11
2019-05-09T03:58:30.693Z,11.1
2019-05-09T04:00:30.660Z,11.1
2019-05-09T04:01:30.643Z,11.1
2019-05-09T04:02:18.727Z,11
2019-05-09T04:03:20.656Z,11
2019-05-09T04:04:30.622Z,11
2019-05-09T04:05:08.460Z,11.1
2019-05-09T04:06:08.644Z,11.1
2019-05-09T04:06:42.574Z,10.9
2019-05-09T04:07:19.067Z,11.1
2019-05-09T04:08:07.630Z,11
2019-05-09T04:10:08.097Z,11.1
2019-05-09T04:11:09.016Z,11
2019-05-09T04:12:59.471Z,11.1
2019-05-09T04:13:30.632Z,11
2019-05-09T04:14:08.532Z,11
2019-05-09T04:17:18.645Z,11
2019-05-09T04:18:18.620Z,11
2019-05-09T04:19:08.630Z,11
2019-05-09T04:20:18.571Z,11
2019-05-09T04:21:54.549Z,11.2
2019-05-09T04:22:30.758Z,11
2019-05-09T04:23:08.251Z,10.9
2019-05-09T04:24:30.596Z,10.9
2019-05-09T04:25:18.630Z,11
2019-05-09T04:27:30.704Z,11
2019-05-09T04:28:30.579Z,11
2019-05-09T04:31:07.721Z,11
2019-05-09T04:33:18.639Z,11
2019-05-09T04:35:30.659Z,10.9
2019-05-09T04:36:54.620Z,11
2019-05-09T04:37:31.455Z,10.9
2019-05-09T04:38:07.740Z,11
2019-05-09T04:38:42.679Z,11
2019-05-09T04:40:03.132Z,10.9
2019-05-09T04:40:54.623Z,11
2019-05-09T04:41:30.594Z,10.9
2019-05-09T04:42:08.726Z,11
2019-05-09T04:43:34.701Z,11
2019-05-09T04:44:19.004Z,11
2019-05-09T04:45:10.362Z,11
2019-05-09T04:45:42.622Z,11
2019-05-09T04:46:24.574Z,11
2019-05-09T04:47:03.132Z,11
2019-05-09T04:48:24.248Z,11
2019-05-09T04:49:54.643Z,11.1
2019-05-09T04:50:42.638Z,11.1
2019-05-09T04:51:18.609Z,11.1
2019-05-09T04:51:54.579Z,11
2019-05-09T04:52:30.551Z,11.1
2019-05-09T04:53:54.650Z,11.1
2019-05-09T04:54:54.545Z,11.1
2019-05-09T04:56:30.550Z,11.1
2019-05-09T04:57:42.618Z,11.1
2019-05-09T04:58:54.565Z,11.1
2019-05-09T04:59:30.628Z,11.1
2019-05-09T05:00:10.224Z,11.2
2019-05-09T05:00:42.605Z,11.2
2019-05-09T05:01:20.078Z,11.3
2019-05-09T05:02:42.621Z,11.2
2019-05-09T05:03:18.676Z,11.3
2019-05-09T05:03:54.566Z,11.2
2019-05-09T05:04:30.671Z,11.3
2019-05-09T05:05:08.130Z,11.2
2019-05-09T05:05:42.603Z,11.3
2019-05-09T05:06:30.592Z,11.2
2019-05-09T05:07:30.623Z,11.3
2019-05-09T05:08:07.872Z,11.2
2019-05-09T05:08:42.573Z,11.3
2019-05-09T05:09:21.718Z,11.3
2019-05-09T05:09:54.612Z,11.3
2019-05-09T05:10:30.600Z,11.3
2019-05-09T05:11:18.587Z,11.3
2019-05-09T05:11:54.559Z,11.4
2019-05-09T05:12:30.646Z,11.3
2019-05-09T05:13:16.340Z,11.4
2019-05-09T05:13:42.588Z,11.3
2019-05-09T05:14:18.571Z,11.4
2019-05-09T05:14:54.636Z,11.4
2019-05-09T05:15:30.609Z,11.4
2019-05-09T05:16:08.727Z,11.5
2019-05-09T05:16:42.619Z,11.4
2019-05-09T05:17:18.644Z,11.4
2019-05-09T05:17:54.610Z,11.4
2019-05-09T05:18:30.591Z,11.4
2019-05-09T05:19:07.862Z,11.5
2019-05-09T05:19:42.635Z,11.5
2019-05-09T05:20:30.635Z,11.5
2019-05-09T05:21:30.549Z,11.5
2019-05-09T05:22:18.711Z,11.6
2019-05-09T05:23:18.611Z,11.5
2019-05-09T05:24:08.520Z,11.6
2019-05-09T05:24:59.835Z,11.6
2019-05-09T05:25:30.540Z,11.6
2019-05-09T05:26:09.115Z,11.6
2019-05-09T05:26:42.610Z,11.6
2019-05-09T05:27:30.598Z,11.6
2019-05-09T05:28:08.938Z,11.6
2019-05-09T05:28:42.546Z,11.6
2019-05-09T05:29:18.675Z,11.6
2019-05-09T05:29:54.597Z,11.7
2019-05-09T05:30:30.568Z,11.8
2019-05-09T05:31:07.752Z,11.7
2019-05-09T05:31:42.619Z,11.7
2019-05-09T05:32:18.598Z,11.8
2019-05-09T05:32:54.563Z,11.7
2019-05-09T05:33:30.526Z,11.7
2019-05-09T05:34:08.652Z,11.8
2019-05-09T05:34:42.605Z,11.8
2019-05-09T05:35:18.555Z,11.8
2019-05-09T05:35:54.532Z,11.8
2019-05-09T05:36:30.617Z,11.9
2019-05-09T05:37:07.864Z,11.9
2019-05-09T05:37:42.554Z,12
2019-05-09T05:38:18.522Z,11.9
2019-05-09T05:38:54.615Z,12
2019-05-09T05:39:30.596Z,12
2019-05-09T05:40:08.129Z,11.9
2019-05-09T05:40:54.580Z,12
2019-05-09T05:41:30.525Z,12
2019-05-09T05:42:08.629Z,12
2019-05-09T05:42:42.586Z,11.9
2019-05-09T05:43:18.567Z,12
2019-05-09T05:43:54.517Z,12.1
2019-05-09T05:44:30.609Z,12
2019-05-09T05:45:07.873Z,11.9
2019-05-09T05:45:42.540Z,12
2019-05-09T05:46:18.685Z,12
2019-05-09T05:46:54.613Z,12
2019-05-09T05:47:30.593Z,12
2019-05-09T05:48:08.208Z,12
2019-05-09T05:48:42.629Z,12
2019-05-09T05:49:30.624Z,11.9
2019-05-09T05:50:08.729Z,12
2019-05-09T05:50:42.585Z,12
2019-05-09T05:51:18.779Z,11.9
2019-05-09T05:51:54.635Z,11.9
2019-05-09T05:52:30.598Z,12
2019-05-09T05:53:08.315Z,12
2019-05-09T05:53:42.538Z,11.9
2019-05-09T05:54:18.627Z,11.9
2019-05-09T05:54:54.595Z,11.9
2019-05-09T05:55:30.583Z,11.9
2019-05-09T05:56:08.793Z,11.9
2019-05-09T05:56:42.617Z,12
2019-05-09T05:57:18.595Z,12
2019-05-09T05:57:54.571Z,11.9
2019-05-09T05:58:30.546Z,12
2019-05-09T05:59:18.529Z,12
2019-05-09T05:59:54.648Z,11.9
2019-05-09T06:00:42.628Z,11.9
2019-05-09T06:01:19.204Z,11.9
2019-05-09T06:01:54.570Z,12
2019-05-09T06:02:30.532Z,12
2019-05-09T06:03:09.007Z,11.9
2019-05-09T06:03:42.591Z,11.9
2019-05-09T06:04:19.099Z,12.1
2019-05-09T06:04:54.523Z,12
2019-05-09T06:05:42.536Z,12.1
2019-05-09T06:06:18.616Z,12
2019-05-09T06:06:54.597Z,12.1
2019-05-09T06:07:30.556Z,12
2019-05-09T06:08:08.535Z,12
2019-05-09T06:08:42.609Z,12.1
2019-05-09T06:09:19.474Z,12
2019-05-09T06:09:54.547Z,12.1
2019-05-09T06:10:30.550Z,12
2019-05-09T06:11:12.372Z,12.1
2019-05-09T06:11:42.586Z,12.1
2019-05-09T06:12:18.863Z,12.1
2019-05-09T06:12:54.529Z,12.2
2019-05-09T06:13:30.601Z,12.1
2019-05-09T06:14:12.087Z,12.1
2019-05-09T06:14:42.538Z,12.2
2019-05-09T06:15:18.768Z,12.3
2019-05-09T06:15:54.630Z,12.3
2019-05-09T06:16:30.583Z,12.3
2019-05-09T06:17:08.374Z,12.3
2019-05-09T06:17:42.502Z,12.3
2019-05-09T06:18:18.857Z,12.3
2019-05-09T06:18:54.603Z,12.3
2019-05-09T06:19:30.538Z,12.4
2019-05-09T06:20:09.215Z,12.4
2019-05-09T06:20:48.550Z,12.4
2019-05-09T06:21:18.602Z,12.3
2019-05-09T06:21:54.544Z,12.4
2019-05-09T06:22:30.496Z,12.3
2019-05-09T06:23:08.889Z,12.3
2019-05-09T06:23:42.566Z,12.4
2019-05-09T06:24:18.537Z,12.4
2019-05-09T06:24:54.520Z,12.4
2019-05-09T06:25:31.241Z,12.4
2019-05-09T06:26:10.611Z,12.3
2019-05-09T06:26:42.542Z,12.3
2019-05-09T06:27:18.690Z,12.4
2019-05-09T06:27:54.594Z,12.3
2019-05-09T06:28:30.563Z,12.4
2019-05-09T06:29:08.398Z,12.4
2019-05-09T06:29:42.488Z,12.4
2019-05-09T06:30:30.637Z,12.4
2019-05-09T06:31:07.882Z,12.4
2019-05-09T06:31:42.561Z,12.4
2019-05-09T06:32:19.201Z,12.4
2019-05-09T06:32:54.617Z,12.5
2019-05-09T06:33:30.593Z,12.5
2019-05-09T06:34:19.375Z,12.5
2019-05-09T06:34:54.565Z,12.4
2019-05-09T06:35:30.514Z,12.5
2019-05-09T06:36:08.547Z,12.5
2019-05-09T06:36:42.643Z,12.5
2019-05-09T06:37:18.824Z,12.5
2019-05-09T06:37:54.536Z,12.5
2019-05-09T06:38:30.630Z,12.5
2019-05-09T06:39:08.666Z,12.6
2019-05-09T06:39:42.552Z,12.5
2019-05-09T06:40:21.718Z,12.5
2019-05-09T06:40:54.602Z,12.5
2019-05-09T06:41:30.572Z,12.4
2019-05-09T06:42:09.472Z,12.5
2019-05-09T06:42:42.508Z,12.5
2019-05-09T06:43:18.708Z,12.5
2019-05-09T06:44:16.304Z,12.5
2019-05-09T06:44:42.571Z,12.4
2019-05-09T06:45:18.545Z,12.3
2019-05-09T06:45:54.504Z,12.5
2019-05-09T06:46:30.593Z,12.5
2019-05-09T06:47:08.677Z,12.4
2019-05-09T06:47:42.538Z,12.4
2019-05-09T06:48:18.501Z,12.4
2019-05-09T06:49:16.948Z,12.5
2019-05-09T06:49:32.347Z,12.4
2019-05-09T06:50:08.338Z,12.4
2019-05-09T06:50:42.495Z,12.5
2019-05-09T06:51:21.603Z,12.4
2019-05-09T06:51:54.561Z,12.5
2019-05-09T06:52:30.542Z,12.5
2019-05-09T06:53:08.373Z,12.4
2019-05-09T06:53:42.584Z,12.4
2019-05-09T06:54:18.558Z,12.5
2019-05-09T06:54:54.552Z,12.4
2019-05-09T06:55:30.522Z,12.4
2019-05-09T06:56:07.822Z,12.4
2019-05-09T06:57:19.064Z,12.4
2019-05-09T06:58:09.194Z,12.4
2019-05-09T06:58:42.497Z,12.4
2019-05-09T06:59:19.458Z,12.5
2019-05-09T06:59:54.555Z,12.5
2019-05-09T07:00:42.550Z,12.4
2019-05-09T07:01:18.688Z,12.5
2019-05-09T07:01:54.472Z,12.4
2019-05-09T07:02:30.647Z,12.5
2019-05-09T07:03:08.500Z,12.6
2019-05-09T07:03:42.516Z,12.5
2019-05-09T07:04:18.682Z,12.5
2019-05-09T07:04:54.570Z,12.5
2019-05-09T07:05:30.550Z,12.4
2019-05-09T07:06:08.673Z,12.5
2019-05-09T07:06:42.475Z,12.5
2019-05-09T07:07:18.564Z,12.5
2019-05-09T07:07:54.552Z,12.6
2019-05-09T07:08:31.790Z,12.5
2019-05-09T07:09:08.748Z,12.6
2019-05-09T07:09:42.579Z,12.6
2019-05-09T07:10:18.531Z,12.6
2019-05-09T07:10:54.503Z,12.6
2019-05-09T07:11:30.475Z,12.7
2019-05-09T07:12:08.255Z,12.7
2019-05-09T07:12:42.531Z,12.7
2019-05-09T07:13:18.615Z,12.7
2019-05-09T07:13:54.483Z,12.8
2019-05-09T07:14:37.670Z,12.7
2019-05-09T07:15:09.217Z,12.8
2019-05-09T07:15:42.499Z,12.8
2019-05-09T07:16:19.062Z,12.9
2019-05-09T07:16:54.563Z,12.9
2019-05-09T07:17:32.332Z,12.9
2019-05-09T07:18:08.482Z,12.9
2019-05-09T07:18:42.609Z,12.9
2019-05-09T07:19:18.567Z,12.9
2019-05-09T07:19:54.526Z,12.9
2019-05-09T07:20:30.495Z,12.9
2019-05-09T07:21:08.624Z,12.9
2019-05-09T07:21:42.558Z,12.9
2019-05-09T07:22:18.899Z,13
2019-05-09T07:22:54.524Z,13
2019-05-09T07:23:30.597Z,13
2019-05-09T07:24:18.851Z,13
2019-05-09T07:25:06.304Z,13
2019-05-09T07:25:30.516Z,13.1
2019-05-09T07:26:08.075Z,13.1
2019-05-09T07:26:42.577Z,13.1
2019-05-09T07:27:18.543Z,13.1
2019-05-09T07:27:54.516Z,13.1
2019-05-09T07:28:30.516Z,13.1
2019-05-09T07:29:07.825Z,13.1
2019-05-09T07:29:42.550Z,13.2
2019-05-09T07:30:18.514Z,13.2
2019-05-09T07:30:54.496Z,13.2
2019-05-09T07:31:30.569Z,13.3
2019-05-09T07:32:07.875Z,13.3
2019-05-09T07:32:42.508Z,13.4
2019-05-09T07:33:19.741Z,13.4
2019-05-09T07:33:54.589Z,13.5
2019-05-09T07:34:30.532Z,13.5
2019-05-09T07:35:09.139Z,13.4
2019-05-09T07:35:42.478Z,13.4
2019-05-09T07:36:19.322Z,13.4
2019-05-09T07:36:54.541Z,13.6
2019-05-09T07:37:30.499Z,13.5
2019-05-09T07:38:08.787Z,13.6
2019-05-09T07:38:42.576Z,13.6
2019-05-09T07:39:18.563Z,13.8
2019-05-09T07:39:54.634Z,13.8
2019-05-09T07:40:31.069Z,13.8
2019-05-09T07:41:18.470Z,14
2019-05-09T07:41:54.560Z,13.9
2019-05-09T07:42:30.539Z,13.9
2019-05-09T07:43:18.524Z,14
2019-05-09T07:43:54.544Z,14
2019-05-09T07:44:51.477Z,13.9
2019-05-09T07:45:09.118Z,13.9
2019-05-09T07:45:42.544Z,14
2019-05-09T07:46:18.530Z,13.8
2019-05-09T07:46:54.460Z,13.9
2019-05-09T07:47:30.563Z,13.9
2019-05-09T07:48:07.957Z,13.8
2019-05-09T07:48:54.640Z,13.9
2019-05-09T07:49:30.493Z,13.9
2019-05-09T07:50:08.922Z,13.9
2019-05-09T07:50:42.550Z,13.9
2019-05-09T07:51:18.516Z,13.8
2019-05-09T07:51:54.497Z,13.8
2019-05-09T07:52:30.452Z,13.9
2019-05-09T07:53:09.168Z,14
2019-05-09T07:53:42.518Z,13.9
2019-05-09T07:54:28.499Z,13.8
2019-05-09T07:54:54.506Z,13.9
2019-05-09T07:55:54.479Z,13.9
2019-05-09T07:56:30.448Z,13.8
2019-05-09T07:57:18.663Z,13.9
2019-05-09T07:57:58.204Z,13.8
2019-05-09T07:58:42.531Z,13.9
2019-05-09T07:59:18.529Z,14
2019-05-09T07:59:54.502Z,14
2019-05-09T08:00:30.466Z,13.9
2019-05-09T08:01:30.499Z,13.8
2019-05-09T08:02:09.041Z,13.8
2019-05-09T08:02:42.537Z,13.7
2019-05-09T08:03:30.528Z,13.7
2019-05-09T08:04:07.914Z,13.7
2019-05-09T08:04:42.520Z,13.7
2019-05-09T08:05:18.457Z,13.7
2019-05-09T08:06:09.167Z,13.6
2019-05-09T08:06:42.557Z,13.6
2019-05-09T08:07:18.495Z,13.7
2019-05-09T08:08:08.436Z,13.5
2019-05-09T08:08:42.462Z,13.7
2019-05-09T08:09:19.059Z,13.7
2019-05-09T08:09:54.544Z,13.6
2019-05-09T08:10:33.569Z,13.7
2019-05-09T08:11:09.156Z,13.7
2019-05-09T08:11:42.542Z,13.7
2019-05-09T08:12:18.525Z,13.7
2019-05-09T08:12:54.514Z,13.6
2019-05-09T08:13:30.472Z,13.6
2019-05-09T08:14:11.058Z,13.8
2019-05-09T08:14:42.519Z,13.8
2019-05-09T08:15:20.609Z,13.8
2019-05-09T08:15:54.463Z,13.8
2019-05-09T08:16:30.546Z,13.8
2019-05-09T08:17:08.805Z,13.8
2019-05-09T08:17:42.491Z,13.9
2019-05-09T08:18:18.463Z,13.9
2019-05-09T08:18:54.542Z,13.9
2019-05-09T08:19:30.511Z,14
2019-05-09T08:20:08.324Z,14
2019-05-09T08:20:42.465Z,14
2019-05-09T08:21:18.600Z,14.1
2019-05-09T08:21:54.512Z,14.1
2019-05-09T08:22:58.508Z,14.1
2019-05-09T08:23:18.478Z,14.2
2019-05-09T08:23:54.443Z,14.1
2019-05-09T08:24:30.536Z,14.2
2019-05-09T08:25:08.617Z,14.2
2019-05-09T08:25:42.531Z,14.1
2019-05-09T08:26:19.213Z,14.1
2019-05-09T08:26:54.528Z,14.1
2019-05-09T08:27:30.711Z,14.1
2019-05-09T08:28:09.354Z,14.1
2019-05-09T08:28:42.438Z,14.2
2019-05-09T08:29:20.565Z,14.2
2019-05-09T08:29:54.508Z,14.2
2019-05-09T08:30:39.406Z,14.2
2019-05-09T08:31:08.740Z,14.2
2019-05-09T08:31:47.913Z,14.2
2019-05-09T08:32:30.528Z,14.4
2019-05-09T08:33:08.652Z,14.3
2019-05-09T08:33:42.465Z,14.4
2019-05-09T08:34:19.066Z,14.3
2019-05-09T08:34:54.524Z,14.3
2019-05-09T08:35:30.503Z,14.2
2019-05-09T08:36:09.229Z,14.3
2019-05-09T08:36:42.430Z,14.3
2019-05-09T08:37:18.520Z,14.3
2019-05-09T08:37:54.490Z,14.4
2019-05-09T08:38:30.477Z,14.4
2019-05-09T08:39:08.520Z,14.5
2019-05-09T08:39:42.523Z,14.5
2019-05-09T08:40:21.715Z,14.5
2019-05-09T08:40:54.456Z,14.5
2019-05-09T08:41:30.506Z,14.5
2019-05-09T08:42:08.967Z,14.6
2019-05-09T08:42:42.492Z,14.7
2019-05-09T08:43:20.135Z,14.7
2019-05-09T08:43:54.416Z,14.7
2019-05-09T08:44:31.665Z,14.7
2019-05-09T08:45:27.475Z,14.7
2019-05-09T08:45:42.452Z,14.8
2019-05-09T08:46:18.656Z,14.9
2019-05-09T08:46:54.523Z,14.9
2019-05-09T08:47:30.473Z,15
2019-05-09T08:48:09.101Z,15
2019-05-09T08:48:42.417Z,15
2019-05-09T08:49:30.411Z,15.1
2019-05-09T08:50:08.310Z,15
2019-05-09T08:50:42.480Z,15.1
2019-05-09T08:51:18.459Z,15
2019-05-09T08:52:16.019Z,15
2019-05-09T08:52:30.505Z,15